Terminal Aerodrome Forecast
Issued by NWS North Platte, NE

Home | Current Version | Previous Version | Text Only | Print | Product List | Glossary On
Versions: 1 2 3 4 5 6 7 8 9 10 11 12 13 14 15 16 17
224
FTUS43 KLBF 281736
TAFLBF
TAF
KLBF 281736Z 2818/2918 10009KT P6SM BKN100
      TEMPO 2818/2821 VRB20KT 4SM -TSRA OVC030CB
     FM282100 07009KT P6SM BKN150
      TEMPO 2821/2823 VRB20KT 5SM -TSRA OVC040CB
     FM290000 VRB06KT P6SM BKN150=

USA.gov is the U.S. government's official web portal to all federal, state and local government web resources and services.